createdAt,value
2018-05-02T00:00:32.838Z,62.63
2018-05-02T00:03:01.123Z,62.95
2018-05-02T00:05:29.398Z,63.10
2018-05-02T00:07:58.264Z,63.00
2018-05-02T00:10:26.514Z,62.83
2018-05-02T00:12:55.010Z,62.63
2018-05-02T00:15:23.266Z,62.09
2018-05-02T00:17:51.598Z,61.83
2018-05-02T00:20:20.657Z,62.66
2018-05-02T00:22:48.937Z,63.04
2018-05-02T00:25:17.287Z,62.44
2018-05-02T00:27:45.587Z,62.19
2018-05-02T00:30:13.840Z,61.95
2018-05-02T00:32:42.226Z,62.07
2018-05-02T00:35:10.913Z,62.13
2018-05-02T00:37:39.184Z,62.15
2018-05-02T00:40:07.463Z,62.01
2018-05-02T00:42:35.716Z,62.54
2018-05-02T00:45:03.993Z,62.42
2018-05-02T00:47:32.297Z,62.81
2018-05-02T00:50:01.433Z,62.97
2018-05-02T00:52:29.700Z,62.83
2018-05-02T00:54:57.973Z,62.90
2018-05-02T00:57:26.287Z,62.91
2018-05-02T00:59:55.529Z,62.93
2018-05-02T01:02:24.461Z,62.56
2018-05-02T01:04:52.694Z,63.05
2018-05-02T01:07:20.971Z,63.44
2018-05-02T01:09:49.757Z,64.75
2018-05-02T01:12:18.065Z,64.89
2018-05-02T01:14:46.337Z,64.74
2018-05-02T01:17:14.594Z,64.56
2018-05-02T01:19:42.875Z,64.72
2018-05-02T01:22:12.029Z,64.62
2018-05-02T01:24:40.858Z,65.07
2018-05-02T01:27:09.130Z,64.88
2018-05-02T01:29:37.414Z,64.73
2018-05-02T01:32:06.519Z,64.80
2018-05-02T01:34:34.794Z,64.54
2018-05-02T01:37:03.074Z,64.41
2018-05-02T01:39:31.367Z,64.17
2018-05-02T01:41:59.628Z,64.02
2018-05-02T01:44:27.903Z,63.46
2018-05-02T01:46:56.182Z,63.24
2018-05-02T01:49:25.422Z,63.43
2018-05-02T01:51:53.703Z,63.62
2018-05-02T01:54:22.002Z,63.82
2018-05-02T01:56:51.130Z,64.05
2018-05-02T01:59:19.406Z,63.96
2018-05-02T02:01:47.699Z,63.81
2018-05-02T02:04:15.984Z,63.55
2018-05-02T02:06:44.338Z,64.04
2018-05-02T02:09:12.597Z,63.82
2018-05-02T02:11:40.891Z,63.99
2018-05-02T02:14:09.166Z,64.40
2018-05-02T02:16:37.512Z,64.35
2018-05-02T02:19:05.748Z,64.70
2018-05-02T02:21:34.020Z,65.17
2018-05-02T02:24:02.314Z,65.36
2018-05-02T02:26:30.590Z,65.41
2018-05-02T02:28:58.838Z,65.09
2018-05-02T02:31:27.108Z,65.14
2018-05-02T02:33:55.677Z,65.04
2018-05-02T02:36:23.867Z,65.08
2018-05-02T02:38:52.143Z,65.21
2018-05-02T02:41:20.430Z,64.79
2018-05-02T02:43:48.747Z,64.40
2018-05-02T02:46:16.999Z,63.68
2018-05-02T02:48:45.726Z,64.14
2018-05-02T02:51:14.016Z,64.51
2018-05-02T02:53:42.281Z,64.95
2018-05-02T02:56:11.382Z,65.18
2018-05-02T02:58:39.650Z,64.81
2018-05-02T03:01:08.896Z,65.22
2018-05-02T03:03:37.165Z,65.57
2018-05-02T03:06:06.480Z,65.74
2018-05-02T03:08:34.802Z,65.75
2018-05-02T03:11:03.118Z,65.53
2018-05-02T03:13:31.474Z,65.06
2018-05-02T03:15:59.775Z,64.98
2018-05-02T03:18:28.046Z,65.36
2018-05-02T03:20:56.433Z,65.38
2018-05-02T03:23:24.718Z,65.95
2018-05-02T03:25:53.073Z,66.33
2018-05-02T03:28:21.447Z,67.32
2018-05-02T03:30:49.692Z,67.54
2018-05-02T03:33:18.018Z,67.29
2018-05-02T03:35:47.401Z,67.21
2018-05-02T03:38:15.693Z,67.02
2018-05-02T03:40:43.990Z,66.86
2018-05-02T03:43:12.266Z,66.42
2018-05-02T03:45:40.533Z,66.64
2018-05-02T03:48:08.811Z,66.97
2018-05-02T03:50:37.062Z,66.47
2018-05-02T03:53:05.432Z,66.03
2018-05-02T03:55:33.633Z,66.21
2018-05-02T03:58:01.977Z,65.67
2018-05-02T04:00:42.103Z,66.13
2018-05-02T04:03:21.920Z,65.82
2018-05-02T04:06:01.978Z,66.29
2018-05-02T04:08:30.987Z,66.47
2018-05-02T04:10:59.282Z,66.13
2018-05-02T04:13:27.621Z,66.04
2018-05-02T04:15:55.895Z,65.32
2018-05-02T04:18:24.210Z,65.85
2018-05-02T04:20:52.574Z,65.67
2018-05-02T04:23:21.469Z,64.60
2018-05-02T04:25:49.768Z,64.78
2018-05-02T04:28:18.062Z,65.45
2018-05-02T04:30:46.379Z,65.16
2018-05-02T04:33:14.671Z,65.07
2018-05-02T04:35:42.935Z,65.58
2018-05-02T04:38:11.209Z,66.12
2018-05-02T04:40:39.507Z,66.45
2018-05-02T04:43:08.506Z,66.44
2018-05-02T04:45:36.852Z,66.20
2018-05-02T04:48:05.112Z,66.39
2018-05-02T04:50:33.416Z,66.18
2018-05-02T04:53:01.692Z,65.85
2018-05-02T04:55:30.010Z,66.06
2018-05-02T04:57:58.261Z,66.00
2018-05-02T05:00:26.543Z,65.96
2018-05-02T05:02:54.834Z,66.08
2018-05-02T05:05:23.107Z,65.75
2018-05-02T05:07:51.385Z,65.41
2018-05-02T05:10:19.676Z,65.49
2018-05-02T05:12:47.953Z,65.54
2018-05-02T05:15:16.580Z,65.71
2018-05-02T05:17:44.881Z,65.79
2018-05-02T05:20:13.168Z,65.62
2018-05-02T05:22:41.514Z,65.53
2018-05-02T05:25:09.977Z,65.17
2018-05-02T05:27:38.584Z,64.90
2018-05-02T05:30:06.878Z,64.92
2018-05-02T05:32:35.975Z,64.81
2018-05-02T05:35:04.269Z,64.64
2018-05-02T05:37:32.571Z,64.18
2018-05-02T05:40:01.453Z,64.47
2018-05-02T05:42:30.459Z,64.18
2018-05-02T05:44:58.719Z,64.37
2018-05-02T05:47:26.977Z,64.08
2018-05-02T05:49:55.274Z,63.74
2018-05-02T05:52:23.520Z,63.69
2018-05-02T05:54:51.889Z,63.23
2018-05-02T05:57:20.134Z,62.78
2018-05-02T05:59:48.972Z,62.95
2018-05-02T06:02:17.230Z,62.59
2018-05-02T06:04:45.534Z,62.63
2018-05-02T06:07:13.811Z,62.47
2018-05-02T06:09:42.998Z,62.51
2018-05-02T06:12:11.270Z,62.59
2018-05-02T06:14:39.555Z,61.92
2018-05-02T06:17:07.818Z,61.83
2018-05-02T06:19:36.104Z,61.84
2018-05-02T06:22:04.367Z,62.01
2018-05-02T06:24:32.678Z,62.10
2018-05-02T06:27:01.067Z,62.04
2018-05-02T06:29:29.342Z,61.52
2018-05-02T06:31:57.722Z,61.06
2018-05-02T06:34:26.010Z,60.99
2018-05-02T06:36:54.339Z,61.51
2018-05-02T06:39:22.641Z,61.26
2018-05-02T06:41:51.028Z,61.04
2018-05-02T06:44:19.277Z,60.92
2018-05-02T06:46:47.582Z,60.62
2018-05-02T06:49:16.366Z,60.39
2018-05-02T06:51:45.501Z,60.13
2018-05-02T06:54:13.778Z,60.19
2018-05-02T06:56:50.893Z,60.14
2018-05-02T06:59:35.126Z,59.47
2018-05-02T07:02:06.245Z,59.31
2018-05-02T07:04:34.503Z,58.46
2018-05-02T07:07:02.818Z,58.58
2018-05-02T07:09:31.133Z,58.79
2018-05-02T07:11:59.450Z,58.44
2018-05-02T07:14:27.716Z,58.29
2018-05-02T07:16:56.001Z,57.74
2018-05-02T07:19:24.259Z,57.33
2018-05-02T07:21:52.636Z,57.26
2018-05-02T07:24:21.015Z,57.31
2018-05-02T07:26:49.349Z,57.41
2018-05-02T07:29:17.875Z,57.46
2018-05-02T07:31:46.231Z,56.97
2018-05-02T07:34:15.662Z,57.18
2018-05-02T07:36:43.938Z,57.14
2018-05-02T07:39:12.865Z,57.03
2018-05-02T07:41:41.132Z,57.14
2018-05-02T07:44:09.930Z,57.04
2018-05-02T07:46:38.258Z,57.37
2018-05-02T07:49:06.571Z,57.11
2018-05-02T07:51:34.867Z,57.25
2018-05-02T07:54:03.239Z,57.17
2018-05-02T07:56:31.631Z,57.20
2018-05-02T07:59:00.050Z,57.28
2018-05-02T08:01:28.380Z,57.06
2018-05-02T08:03:56.755Z,57.09
2018-05-02T08:06:25.154Z,56.94
2018-05-02T08:08:53.481Z,56.54
2018-05-02T08:11:21.816Z,56.48
2018-05-02T08:13:50.140Z,56.38
2018-05-02T08:16:19.511Z,56.31
2018-05-02T08:18:48.385Z,55.84
2018-05-02T08:21:16.816Z,55.79
2018-05-02T08:23:45.222Z,55.58
2018-05-02T08:26:13.575Z,55.43
2018-05-02T08:28:41.957Z,55.38
2018-05-02T08:31:10.302Z,55.17
2018-05-02T08:33:39.018Z,54.81
2018-05-02T08:36:07.443Z,54.80
2018-05-02T08:38:35.734Z,54.52
2018-05-02T08:41:04.036Z,54.29
2018-05-02T08:43:32.345Z,53.75
2018-05-02T08:46:00.727Z,53.54
2018-05-02T08:48:29.058Z,52.97
2018-05-02T08:50:57.373Z,53.63
2018-05-02T08:53:25.719Z,53.65
2018-05-02T08:55:54.037Z,53.31
2018-05-02T08:58:22.387Z,52.84
2018-05-02T09:00:50.757Z,52.19
2018-05-02T09:03:19.078Z,51.95
2018-05-02T09:05:47.411Z,51.48
2018-05-02T09:08:15.897Z,51.13
2018-05-02T09:10:44.375Z,50.74
2018-05-02T09:13:12.747Z,50.06
2018-05-02T09:15:41.103Z,49.83
2018-05-02T09:18:09.376Z,49.89
2018-05-02T09:20:37.688Z,49.68
2018-05-02T09:23:06.595Z,49.17
2018-05-02T09:25:34.916Z,49.02
2018-05-02T09:28:03.204Z,48.20
2018-05-02T09:30:31.584Z,48.18
2018-05-02T09:32:59.974Z,47.10
2018-05-02T09:35:28.377Z,47.18
2018-05-02T09:37:57.023Z,46.58
2018-05-02T09:40:25.443Z,45.88
2018-05-02T09:42:53.954Z,45.36
2018-05-02T09:45:22.203Z,44.67
2018-05-02T09:47:50.495Z,44.02
2018-05-02T09:50:18.795Z,43.20
2018-05-02T09:52:47.222Z,41.29
2018-05-02T09:55:15.529Z,42.01
2018-05-02T09:57:43.837Z,40.84
2018-05-02T10:00:12.579Z,40.15
2018-05-02T10:02:40.908Z,40.14
2018-05-02T10:05:09.143Z,40.43
2018-05-02T10:07:37.420Z,40.38
2018-05-02T10:10:05.736Z,39.99
2018-05-02T10:12:34.001Z,40.00
2018-05-02T10:15:02.397Z,39.47
2018-05-02T10:17:30.789Z,38.31
2018-05-02T10:19:59.083Z,38.61
2018-05-02T10:22:27.445Z,38.43
2018-05-02T10:24:55.985Z,38.28
2018-05-02T10:27:24.254Z,37.67
2018-05-02T10:29:52.581Z,37.56
2018-05-02T10:32:20.835Z,37.17
2018-05-02T10:34:49.232Z,37.22
2018-05-02T10:37:18.031Z,36.78
2018-05-02T10:39:46.394Z,37.14
2018-05-02T10:42:14.654Z,36.95
2018-05-02T10:44:43.076Z,37.36
2018-05-02T10:47:11.577Z,37.16
2018-05-02T10:49:39.923Z,37.13
2018-05-02T10:52:08.265Z,36.58
2018-05-02T10:54:37.591Z,36.48
2018-05-02T10:57:05.896Z,35.51
2018-05-02T10:59:35.575Z,34.96
2018-05-02T11:02:03.926Z,35.16
2018-05-02T11:04:32.316Z,34.79
2018-05-02T11:07:00.682Z,34.05
2018-05-02T11:09:28.981Z,34.07
2018-05-02T11:11:58.361Z,33.65
2018-05-02T11:14:27.741Z,34.24
2018-05-02T11:16:56.045Z,34.50
2018-05-02T11:19:24.578Z,33.80
2018-05-02T11:21:53.672Z,33.63
2018-05-02T11:24:22.552Z,33.37
2018-05-02T11:26:50.871Z,33.97
2018-05-02T11:29:19.159Z,33.42
2018-05-02T11:31:47.463Z,33.54
2018-05-02T11:34:15.742Z,32.49
2018-05-02T11:36:44.046Z,32.39
2018-05-02T11:39:12.324Z,31.79
2018-05-02T11:41:40.613Z,32.03
2018-05-02T11:44:09.265Z,31.83
2018-05-02T11:46:37.607Z,31.56
2018-05-02T11:49:06.468Z,31.44
2018-05-02T11:51:34.744Z,31.06
2018-05-02T11:54:03.258Z,31.98
2018-05-02T11:56:31.565Z,31.47
2018-05-02T11:58:59.863Z,31.44
2018-05-02T12:01:28.138Z,31.71
2018-05-02T12:03:56.434Z,31.39
2018-05-02T12:06:24.734Z,32.36
2018-05-02T12:08:53.099Z,32.60
2018-05-02T12:11:21.786Z,32.85
2018-05-02T12:13:50.112Z,32.89
2018-05-02T12:16:18.403Z,32.00
2018-05-02T12:18:46.686Z,31.68
2018-05-02T12:21:14.955Z,31.64
2018-05-02T12:23:43.288Z,31.55
2018-05-02T12:26:11.569Z,31.06
2018-05-02T12:28:39.872Z,31.38
2018-05-02T12:31:08.176Z,31.31
2018-05-02T12:33:36.471Z,30.88
2018-05-02T12:36:04.728Z,30.66
2018-05-02T12:38:34.129Z,30.81
2018-05-02T12:41:02.796Z,31.06
2018-05-02T12:43:31.211Z,31.72
2018-05-02T12:45:59.530Z,31.83
2018-05-02T12:48:27.826Z,32.10
2018-05-02T12:50:56.166Z,32.42
2018-05-02T12:53:24.395Z,33.20
2018-05-02T12:55:52.714Z,33.24
2018-05-02T12:58:21.018Z,32.60
2018-05-02T13:00:49.429Z,33.43
2018-05-02T13:03:17.677Z,33.69
2018-05-02T13:05:45.962Z,33.01
2018-05-02T13:08:14.279Z,33.51
2018-05-02T13:10:42.571Z,33.39
2018-05-02T13:13:11.605Z,33.46
2018-05-02T13:15:39.913Z,33.62
2018-05-02T13:18:08.184Z,33.59
2018-05-02T13:20:36.473Z,34.07
2018-05-02T13:23:04.737Z,33.73
2018-05-02T13:25:33.141Z,34.21
2018-05-02T13:28:01.474Z,34.15
2018-05-02T13:30:29.846Z,34.18
2018-05-02T13:32:58.233Z,34.65
2018-05-02T13:35:26.550Z,34.71
2018-05-02T13:37:54.929Z,34.37
2018-05-02T13:40:23.251Z,34.25
2018-05-02T13:42:51.570Z,34.70
2018-05-02T13:45:19.918Z,34.65
2018-05-02T13:47:48.228Z,34.60
2018-05-02T13:50:16.572Z,34.29
2018-05-02T13:52:46.857Z,34.72
2018-05-02T13:55:15.199Z,34.45
2018-05-02T13:57:44.370Z,34.38
2018-05-02T14:00:12.671Z,34.45
2018-05-02T14:02:41.062Z,34.40
2018-05-02T14:05:09.329Z,33.40
2018-05-02T14:07:37.808Z,33.82
2018-05-02T14:10:06.094Z,33.80
2018-05-02T14:12:34.478Z,34.14
2018-05-02T14:15:02.798Z,33.83
2018-05-02T14:17:31.136Z,34.09
2018-05-02T14:19:59.477Z,34.35
2018-05-02T14:22:27.822Z,34.48
2018-05-02T14:24:56.268Z,34.30
2018-05-02T14:27:24.571Z,33.97
2018-05-02T14:29:52.998Z,33.71
2018-05-02T14:32:21.273Z,33.52
2018-05-02T14:34:49.581Z,33.23
2018-05-02T14:37:17.896Z,33.63
2018-05-02T14:39:46.203Z,32.97
2018-05-02T14:42:16.837Z,33.26
2018-05-02T14:44:49.788Z,33.72
2018-05-02T14:47:25.188Z,34.05
2018-05-02T14:49:54.062Z,34.68
2018-05-02T14:52:22.333Z,34.62
2018-05-02T14:54:50.900Z,34.88
2018-05-02T14:57:19.235Z,34.86
2018-05-02T14:59:47.728Z,34.38
2018-05-02T15:02:16.854Z,34.68
2018-05-02T15:04:45.159Z,34.87
2018-05-02T15:07:18.220Z,34.79
2018-05-02T15:09:47.034Z,34.15
2018-05-02T15:12:15.319Z,34.08
2018-05-02T15:14:43.610Z,34.32
2018-05-02T15:17:11.894Z,34.83
2018-05-02T15:19:40.217Z,35.31
2018-05-02T15:22:08.996Z,35.35
2018-05-02T15:24:37.344Z,35.43
2018-05-02T15:27:05.622Z,35.23
2018-05-02T15:29:34.010Z,35.49
2018-05-02T15:32:03.150Z,35.18
2018-05-02T15:34:31.445Z,34.87
2018-05-02T15:37:00.011Z,34.55
2018-05-02T15:39:28.540Z,34.04
2018-05-02T15:41:56.818Z,33.54
2018-05-02T15:44:25.098Z,33.35
2018-05-02T15:46:53.483Z,33.83
2018-05-02T15:49:21.869Z,34.29
2018-05-02T15:51:50.162Z,34.42
2018-05-02T15:54:18.433Z,34.28
2018-05-02T15:56:46.742Z,33.70
2018-05-02T15:59:15.003Z,33.77
2018-05-02T16:01:43.353Z,33.18
2018-05-02T16:04:11.720Z,33.97
2018-05-02T16:06:40.038Z,34.07
2018-05-02T16:09:09.002Z,34.43
2018-05-02T16:11:37.317Z,34.67
2018-05-02T16:14:05.603Z,34.53
2018-05-02T16:16:33.961Z,34.09
2018-05-02T16:19:02.545Z,34.43
2018-05-02T16:21:30.822Z,34.33
2018-05-02T16:23:59.292Z,34.52
2018-05-02T16:26:27.585Z,34.80
2018-05-02T16:28:55.873Z,34.86
2018-05-02T16:31:24.197Z,35.21
2018-05-02T16:33:52.458Z,35.58
2018-05-02T16:36:20.781Z,35.75
2018-05-02T16:38:49.046Z,36.06
2018-05-02T16:41:17.373Z,36.01
2018-05-02T16:43:45.664Z,35.76
2018-05-02T16:46:13.984Z,35.71
2018-05-02T16:48:42.356Z,35.90
2018-05-02T16:51:10.582Z,35.91
2018-05-02T16:53:38.930Z,35.90
2018-05-02T16:56:07.226Z,35.88
2018-05-02T16:58:35.533Z,36.29
2018-05-02T17:01:03.806Z,36.47
2018-05-02T17:03:32.154Z,36.29
2018-05-02T17:06:00.896Z,36.30
2018-05-02T17:08:29.285Z,36.33
2018-05-02T17:10:57.620Z,36.51
2018-05-02T17:13:25.898Z,37.13
2018-05-02T17:15:54.178Z,37.29
2018-05-02T17:18:22.478Z,37.34
2018-05-02T17:20:50.778Z,37.60
2018-05-02T17:23:19.169Z,37.62
2018-05-02T17:25:47.596Z,37.55
2018-05-02T17:28:15.878Z,37.65
2018-05-02T17:30:44.191Z,37.71
2018-05-02T17:33:12.497Z,37.85
2018-05-02T17:35:41.743Z,38.58
2018-05-02T17:38:10.031Z,38.79
2018-05-02T17:40:38.407Z,38.96
2018-05-02T17:43:06.998Z,39.10
2018-05-02T17:45:35.303Z,39.30
2018-05-02T17:48:04.919Z,39.45
2018-05-02T17:50:33.266Z,39.59
2018-05-02T17:53:02.706Z,39.42
2018-05-02T17:55:30.964Z,39.63
2018-05-02T17:58:00.316Z,39.70
2018-05-02T18:00:28.630Z,40.00
2018-05-02T18:02:56.923Z,39.89
2018-05-02T18:05:25.211Z,39.98
2018-05-02T18:07:53.493Z,39.90
2018-05-02T18:10:21.833Z,39.90
2018-05-02T18:12:50.061Z,39.86
2018-05-02T18:15:18.974Z,40.08
2018-05-02T18:17:47.209Z,40.34
2018-05-02T18:20:15.493Z,40.56
2018-05-02T18:22:43.821Z,40.55
2018-05-02T18:25:12.155Z,40.54
2018-05-02T18:27:40.525Z,40.63
2018-05-02T18:30:08.867Z,40.94
2018-05-02T18:32:38.251Z,41.19
2018-05-02T18:35:06.528Z,41.25
2018-05-02T18:37:34.856Z,41.54
2018-05-02T18:40:03.095Z,41.46
2018-05-02T18:42:31.425Z,41.64
2018-05-02T18:44:59.744Z,41.61
2018-05-02T18:47:28.810Z,41.92
2018-05-02T18:49:57.150Z,42.29
2018-05-02T18:52:25.424Z,42.49
2018-05-02T18:54:53.723Z,42.69
2018-05-02T18:57:22.015Z,42.83
2018-05-02T18:59:50.326Z,43.53
2018-05-02T19:02:19.213Z,43.82
2018-05-02T19:04:47.540Z,44.16
2018-05-02T19:07:15.858Z,44.15
2018-05-02T19:09:44.154Z,44.66
2018-05-02T19:12:12.488Z,44.92
2018-05-02T19:14:40.755Z,45.06
2018-05-02T19:17:09.040Z,45.27
2018-05-02T19:19:42.927Z,45.30
2018-05-02T19:22:11.168Z,45.54
2018-05-02T19:24:45.083Z,46.05
2018-05-02T19:27:13.342Z,46.58
2018-05-02T19:29:41.716Z,47.14
2018-05-02T19:32:15.528Z,47.05
2018-05-02T19:34:43.826Z,47.75
2018-05-02T19:37:12.098Z,48.29
2018-05-02T19:39:45.883Z,49.11
2018-05-02T19:42:19.898Z,48.85
2018-05-02T19:44:48.225Z,48.87
2018-05-02T19:47:16.580Z,49.40
2018-05-02T19:49:44.912Z,49.98
2018-05-02T19:52:18.788Z,49.79
2018-05-02T19:54:47.035Z,50.36
2018-05-02T19:57:15.326Z,50.49
2018-05-02T19:59:43.602Z,50.88
2018-05-02T20:02:18.072Z,51.51
2018-05-02T20:04:46.420Z,51.63
2018-05-02T20:07:21.092Z,51.71
2018-05-02T20:09:54.924Z,51.55
2018-05-02T20:12:30.358Z,51.93
2018-05-02T20:14:58.646Z,52.25
2018-05-02T20:17:26.998Z,52.08
2018-05-02T20:19:58.252Z,51.92
2018-05-02T20:22:26.555Z,52.03
2018-05-02T20:24:54.882Z,52.42
2018-05-02T20:27:23.413Z,52.57
2018-05-02T20:29:51.686Z,52.77
2018-05-02T20:32:20.370Z,52.93
2018-05-02T20:34:48.638Z,53.18
2018-05-02T20:37:16.986Z,53.00
2018-05-02T20:39:45.291Z,53.10
2018-05-02T20:42:13.584Z,53.04
2018-05-02T20:44:44.273Z,52.87
2018-05-02T20:47:13.653Z,53.30
2018-05-02T20:49:43.852Z,53.36
2018-05-02T20:52:12.251Z,53.76
2018-05-02T20:54:40.686Z,53.77
2018-05-02T20:57:09.041Z,54.07
2018-05-02T20:59:37.482Z,53.89
2018-05-02T21:02:05.742Z,53.96
2018-05-02T21:04:34.067Z,53.89
2018-05-02T21:07:02.462Z,53.86
2018-05-02T21:09:30.770Z,53.50
2018-05-02T21:12:00.091Z,53.12
2018-05-02T21:14:28.807Z,53.19
2018-05-02T21:16:59.795Z,53.29
2018-05-02T21:19:29.295Z,53.67
2018-05-02T21:21:57.598Z,54.10
2018-05-02T21:24:25.958Z,54.00
2018-05-02T21:26:54.236Z,53.65
2018-05-02T21:29:22.560Z,53.77
2018-05-02T21:31:50.965Z,54.18
2018-05-02T21:34:19.290Z,54.36
2018-05-02T21:36:47.599Z,54.49
2018-05-02T21:39:15.920Z,54.04
2018-05-02T21:41:44.198Z,54.46
2018-05-02T21:44:12.495Z,54.51
2018-05-02T21:46:41.400Z,54.79
2018-05-02T21:49:09.680Z,55.22
2018-05-02T21:51:38.016Z,54.96
2018-05-02T21:54:06.314Z,55.89
2018-05-02T21:56:35.097Z,56.26
2018-05-02T21:59:03.361Z,56.19
2018-05-02T22:01:31.666Z,56.82
2018-05-02T22:03:59.923Z,57.30
2018-05-02T22:06:28.228Z,57.39
2018-05-02T22:08:56.694Z,57.63
2018-05-02T22:11:24.983Z,57.33
2018-05-02T22:13:53.235Z,57.10
2018-05-02T22:16:21.521Z,56.99
2018-05-02T22:18:49.818Z,57.09
2018-05-02T22:21:18.081Z,57.32
2018-05-02T22:23:46.674Z,57.07
2018-05-02T22:26:14.943Z,57.25
2018-05-02T22:28:43.218Z,57.53
2018-05-02T22:31:11.475Z,57.66
2018-05-02T22:33:39.779Z,57.53
2018-05-02T22:36:08.043Z,57.86
2018-05-02T22:38:36.309Z,58.66
2018-05-02T22:41:04.584Z,58.73
2018-05-02T22:43:32.970Z,59.25
2018-05-02T22:46:01.239Z,59.22
2018-05-02T22:48:29.514Z,59.77
2018-05-02T22:51:12.531Z,60.48
2018-05-02T22:53:40.900Z,60.52
2018-05-02T22:56:09.159Z,60.63
2018-05-02T22:58:37.471Z,60.58
2018-05-02T23:01:05.792Z,60.39
2018-05-02T23:03:34.034Z,60.31
2018-05-02T23:06:02.327Z,60.35
2018-05-02T23:08:30.607Z,60.24
2018-05-02T23:10:58.885Z,60.38
2018-05-02T23:13:27.179Z,60.67
2018-05-02T23:15:55.433Z,60.87
2018-05-02T23:18:23.747Z,60.84
2018-05-02T23:20:52.134Z,60.72
2018-05-02T23:23:20.397Z,61.07
2018-05-02T23:25:48.689Z,60.84
2018-05-02T23:28:16.981Z,60.89
2018-05-02T23:30:45.286Z,60.78
2018-05-02T23:33:13.538Z,61.06
2018-05-02T23:35:41.829Z,61.31
2018-05-02T23:38:10.102Z,61.36
2018-05-02T23:40:38.962Z,61.37
2018-05-02T23:43:08.659Z,61.49
2018-05-02T23:45:36.952Z,61.94
2018-05-02T23:48:05.226Z,61.99
2018-05-02T23:50:33.746Z,61.90
2018-05-02T23:53:02.008Z,62.14
2018-05-02T23:55:30.303Z,62.05
2018-05-02T23:57:58.557Z,61.88
